createdAt,value
2022-08-26T00:01:24.266Z,19.00
2022-08-26T00:03:56.730Z,18.97
2022-08-26T00:06:24.896Z,18.96
2022-08-26T00:08:51.438Z,18.95
2022-08-26T00:11:26.409Z,18.95
2022-08-26T00:13:54.101Z,18.94
2022-08-26T00:16:21.067Z,18.93
2022-08-26T00:18:47.479Z,18.93
2022-08-26T00:21:13.964Z,18.92
2022-08-26T00:23:40.728Z,18.91
2022-08-26T00:26:08.357Z,18.87
2022-08-26T00:28:37.735Z,18.93
2022-08-26T00:31:04.513Z,18.90
2022-08-26T00:33:33.405Z,18.85
2022-08-26T00:36:01.678Z,18.84
2022-08-26T00:38:29.100Z,18.81
2022-08-26T00:40:56.787Z,18.78
2022-08-26T00:43:24.252Z,18.76
2022-08-26T00:46:02.996Z,18.73
2022-08-26T00:48:31.820Z,18.71
2022-08-26T00:51:02.564Z,18.69
2022-08-26T00:53:32.331Z,18.69
2022-08-26T00:56:04.470Z,18.65
2022-08-26T00:58:32.034Z,18.69
2022-08-26T01:00:58.519Z,18.68
2022-08-26T01:03:25.984Z,18.69
2022-08-26T01:05:55.288Z,18.69
2022-08-26T01:08:23.165Z,18.70
2022-08-26T01:10:52.397Z,18.69
2022-08-26T01:13:23.188Z,18.65
2022-08-26T01:15:55.904Z,18.60
2022-08-26T01:18:22.906Z,18.59
2022-08-26T01:20:58.203Z,18.60
2022-08-26T01:23:28.347Z,18.59
2022-08-26T01:25:59.423Z,18.59
2022-08-26T01:28:28.898Z,18.56
2022-08-26T01:30:57.274Z,18.53
2022-08-26T01:33:29.710Z,18.50
2022-08-26T01:36:06.479Z,18.47
2022-08-26T01:38:33.203Z,18.48
2022-08-26T01:41:00.683Z,18.48
2022-08-26T01:43:29.441Z,18.46
2022-08-26T01:45:57.131Z,18.45
2022-08-26T01:48:26.475Z,18.45
2022-08-26T01:50:53.782Z,18.43
2022-08-26T01:53:22.335Z,18.42
2022-08-26T01:55:51.372Z,18.43
2022-08-26T01:58:24.488Z,18.42
2022-08-26T02:00:51.837Z,18.40
2022-08-26T02:03:21.736Z,18.35
2022-08-26T02:05:53.327Z,18.32
2022-08-26T02:08:40.098Z,18.29
2022-08-26T02:11:06.881Z,18.26
2022-08-26T02:13:34.790Z,18.22
2022-08-26T02:16:03.491Z,18.22
2022-08-26T02:18:33.289Z,18.17
2022-08-26T02:21:00.490Z,18.17
2022-08-26T02:23:26.970Z,18.16
2022-08-26T02:26:03.427Z,18.15
2022-08-26T02:28:34.251Z,18.14
2022-08-26T02:31:00.756Z,18.12
2022-08-26T02:33:29.606Z,18.11
2022-08-26T02:35:56.212Z,18.10
2022-08-26T02:38:23.396Z,18.09
2022-08-26T02:40:50.218Z,18.10
2022-08-26T02:43:17.564Z,18.10
2022-08-26T02:45:44.371Z,18.09
2022-08-26T02:48:13.084Z,18.09
2022-08-26T02:50:40.644Z,18.09
2022-08-26T02:53:09.823Z,18.10
2022-08-26T02:55:36.872Z,18.03
2022-08-26T02:58:03.627Z,17.98
2022-08-26T03:00:31.422Z,17.93
2022-08-26T03:02:58.487Z,17.88
2022-08-26T03:05:25.190Z,17.84
2022-08-26T03:07:51.792Z,17.79
2022-08-26T03:10:18.568Z,17.73
2022-08-26T03:12:48.161Z,17.72
2022-08-26T03:15:17.606Z,17.73
2022-08-26T03:17:45.604Z,17.74
2022-08-26T03:20:12.063Z,17.75
2022-08-26T03:22:40.294Z,17.77
2022-08-26T03:25:09.297Z,17.79
2022-08-26T03:27:36.021Z,17.81
2022-08-26T03:30:21.401Z,17.81
2022-08-26T03:32:47.844Z,17.81
2022-08-26T03:35:14.972Z,17.83
2022-08-26T03:37:41.406Z,17.80
2022-08-26T03:40:10.507Z,17.78
2022-08-26T03:42:41.372Z,17.71
2022-08-26T03:45:12.609Z,17.71
2022-08-26T03:47:39.777Z,17.71
2022-08-26T03:50:07.169Z,17.69
2022-08-26T03:52:34.117Z,17.69
2022-08-26T03:55:00.524Z,17.71
2022-08-26T03:57:27.185Z,17.71
2022-08-26T03:59:54.518Z,17.72
2022-08-26T04:02:20.958Z,17.72
2022-08-26T04:04:47.553Z,17.72
2022-08-26T04:07:14.123Z,17.73
2022-08-26T04:09:41.641Z,17.75
2022-08-26T04:12:08.271Z,17.69
2022-08-26T04:14:38.227Z,17.60
2022-08-26T04:17:05.599Z,17.56
2022-08-26T04:19:33.540Z,17.49
2022-08-26T04:21:59.996Z,17.42
2022-08-26T04:24:27.852Z,17.43
2022-08-26T04:26:56.567Z,17.41
2022-08-26T04:29:25.425Z,17.41
2022-08-26T04:31:55.567Z,17.40
2022-08-26T04:34:27.289Z,17.39
2022-08-26T04:36:56.163Z,17.39
2022-08-26T04:39:22.633Z,17.40
2022-08-26T04:41:50.300Z,17.40
2022-08-26T04:44:17.945Z,17.40
2022-08-26T04:46:44.690Z,17.41
2022-08-26T04:49:11.445Z,17.41
2022-08-26T04:51:38.018Z,17.42
2022-08-26T04:54:07.014Z,17.42
2022-08-26T04:56:35.490Z,17.44
2022-08-26T04:59:03.014Z,17.46
2022-08-26T05:01:31.720Z,17.48
2022-08-26T05:03:58.508Z,17.49
2022-08-26T05:06:26.164Z,17.52
2022-08-26T05:08:53.089Z,17.56
2022-08-26T05:11:20.366Z,17.58
2022-08-26T05:13:49.065Z,17.62
2022-08-26T05:16:16.857Z,17.68
2022-08-26T05:18:45.037Z,17.74
2022-08-26T05:21:30.796Z,17.80
2022-08-26T05:23:57.256Z,17.85
2022-08-26T05:26:24.775Z,17.91
2022-08-26T05:28:54.721Z,17.99
2022-08-26T05:31:29.145Z,18.07
2022-08-26T05:33:57.590Z,18.16
2022-08-26T05:36:26.864Z,18.24
2022-08-26T05:38:53.564Z,18.32
2022-08-26T05:41:23.011Z,18.42
2022-08-26T05:43:49.420Z,18.46
2022-08-26T05:46:16.275Z,18.49
2022-08-26T05:48:44.412Z,18.52
2022-08-26T05:51:11.792Z,18.53
2022-08-26T05:53:38.918Z,18.59
2022-08-26T05:56:06.193Z,18.62
2022-08-26T05:58:34.393Z,18.66
2022-08-26T06:01:04.283Z,18.73
2022-08-26T06:03:31.923Z,18.82
2022-08-26T06:05:58.323Z,18.94
2022-08-26T06:08:24.837Z,19.08
2022-08-26T06:10:56.912Z,19.16
2022-08-26T06:13:31.869Z,19.23
2022-08-26T06:15:59.286Z,19.27
2022-08-26T06:18:35.420Z,19.34
2022-08-26T06:21:12.998Z,19.43
2022-08-26T06:23:59.812Z,19.49
2022-08-26T06:26:27.176Z,19.57
2022-08-26T06:28:55.428Z,19.63
2022-08-26T06:31:23.021Z,19.71
2022-08-26T06:33:50.676Z,19.78
2022-08-26T06:36:25.244Z,19.84
2022-08-26T06:38:52.387Z,20.03
2022-08-26T06:41:21.135Z,20.09
2022-08-26T06:43:47.817Z,20.20
2022-08-26T06:46:16.610Z,20.30
2022-08-26T06:48:43.764Z,20.31
2022-08-26T06:51:13.081Z,20.34
2022-08-26T06:53:41.110Z,20.42
2022-08-26T06:56:10.091Z,20.46
2022-08-26T06:58:38.258Z,20.59
2022-08-26T07:01:24.713Z,20.75
2022-08-26T07:03:52.001Z,20.91
2022-08-26T07:06:20.750Z,21.09
2022-08-26T07:08:47.701Z,21.23
2022-08-26T07:11:14.491Z,21.40
2022-08-26T07:13:41.035Z,21.54
2022-08-26T07:16:14.101Z,21.73
2022-08-26T07:18:44.916Z,21.91
2022-08-26T07:21:13.948Z,22.18
2022-08-26T07:23:41.352Z,22.34
2022-08-26T07:26:10.285Z,22.50
2022-08-26T07:28:37.098Z,22.69
2022-08-26T07:31:09.653Z,22.91
2022-08-26T07:33:37.032Z,23.13
2022-08-26T07:36:04.200Z,23.40
2022-08-26T07:38:30.791Z,23.59
2022-08-26T07:41:00.419Z,23.70
2022-08-26T07:43:30.366Z,23.82
2022-08-26T07:46:00.917Z,23.91
2022-08-26T07:48:28.316Z,24.08
2022-08-26T07:50:57.855Z,24.20
2022-08-26T07:53:24.404Z,24.31
2022-08-26T07:55:51.209Z,24.37
2022-08-26T07:58:18.758Z,24.42
2022-08-26T08:00:45.401Z,24.50
2022-08-26T08:03:12.695Z,24.61
2022-08-26T08:05:41.252Z,24.71
2022-08-26T08:08:26.648Z,24.75
2022-08-26T08:10:55.262Z,24.81
2022-08-26T08:13:23.003Z,24.92
2022-08-26T08:15:50.341Z,25.00
2022-08-26T08:18:17.231Z,25.09
2022-08-26T08:20:47.634Z,25.11
2022-08-26T08:23:31.583Z,25.24
2022-08-26T08:26:05.438Z,25.36
2022-08-26T08:28:32.139Z,25.45
2022-08-26T08:30:59.068Z,25.53
2022-08-26T08:33:26.202Z,25.56
2022-08-26T08:35:52.690Z,25.71
2022-08-26T08:38:19.121Z,25.90
2022-08-26T08:40:45.987Z,25.90
2022-08-26T08:43:14.459Z,26.11
2022-08-26T08:45:41.964Z,26.26
2022-08-26T08:48:11.824Z,26.21
2022-08-26T08:50:49.100Z,26.26
2022-08-26T08:53:30.487Z,26.32
2022-08-26T08:56:00.784Z,26.46
2022-08-26T08:58:40.250Z,26.62
2022-08-26T09:01:09.753Z,26.88
2022-08-26T09:03:50.476Z,26.88
2022-08-26T09:06:18.734Z,26.86
2022-08-26T09:08:46.875Z,26.84
2022-08-26T09:11:17.712Z,26.76
2022-08-26T09:13:45.131Z,26.74
2022-08-26T09:16:16.013Z,26.71
2022-08-26T09:18:48.769Z,26.68
2022-08-26T09:21:17.837Z,26.71
2022-08-26T09:23:47.007Z,26.71
2022-08-26T09:26:21.402Z,26.66
2022-08-26T09:28:56.167Z,26.61
2022-08-26T09:31:34.274Z,26.49
2022-08-26T09:34:04.745Z,26.41
2022-08-26T09:36:39.528Z,26.32
2022-08-26T09:39:27.608Z,26.23
2022-08-26T09:42:04.871Z,26.18
2022-08-26T09:44:31.691Z,26.16
2022-08-26T09:47:01.665Z,26.17
2022-08-26T09:49:36.285Z,26.15
2022-08-26T09:52:07.805Z,26.09
2022-08-26T09:54:35.197Z,25.97
2022-08-26T09:57:16.904Z,25.82
2022-08-26T09:59:43.768Z,25.64
2022-08-26T10:02:20.743Z,25.53
2022-08-26T10:04:55.355Z,25.35
2022-08-26T10:07:38.846Z,25.04
2022-08-26T10:10:09.234Z,24.79
2022-08-26T10:12:39.636Z,24.46
2022-08-26T10:15:10.815Z,24.19
2022-08-26T10:17:41.548Z,23.91
2022-08-26T10:20:22.555Z,23.67
2022-08-26T10:22:50.153Z,23.50
2022-08-26T10:25:20.273Z,23.17
2022-08-26T10:27:53.385Z,22.89
2022-08-26T10:30:22.496Z,22.45
2022-08-26T10:32:51.272Z,22.12
2022-08-26T10:35:19.277Z,21.86
2022-08-26T10:37:50.929Z,21.74
2022-08-26T10:40:29.266Z,21.68
2022-08-26T10:43:08.542Z,21.68
2022-08-26T10:45:38.839Z,21.88
2022-08-26T10:48:06.896Z,22.14
2022-08-26T10:50:35.453Z,22.51
2022-08-26T10:53:03.724Z,22.88
2022-08-26T10:55:43.053Z,23.21
2022-08-26T10:58:13.997Z,23.39
2022-08-26T11:01:16.819Z,23.54
2022-08-26T11:03:50.293Z,23.51
2022-08-26T11:06:19.563Z,23.24
2022-08-26T11:08:49.978Z,23.24
2022-08-26T11:11:35.237Z,23.37
2022-08-26T11:14:05.026Z,23.55
2022-08-26T11:16:34.615Z,23.57
2022-08-26T11:19:01.088Z,23.54
2022-08-26T11:21:47.689Z,23.52
2022-08-26T11:24:34.372Z,23.43
2022-08-26T11:27:02.315Z,23.26
2022-08-26T11:29:56.168Z,23.19
2022-08-26T11:32:26.914Z,23.10
2022-08-26T11:34:56.330Z,22.88
2022-08-26T11:37:26.267Z,22.84
2022-08-26T11:39:56.882Z,22.74
2022-08-26T11:42:31.293Z,22.66
2022-08-26T11:44:58.350Z,22.65
2022-08-26T11:47:26.749Z,22.67
2022-08-26T11:50:27.638Z,22.69
2022-08-26T11:53:01.959Z,22.71
2022-08-26T11:55:30.270Z,22.84
2022-08-26T11:57:58.219Z,23.01
2022-08-26T12:00:27.444Z,23.17
2022-08-26T12:03:01.996Z,23.39
2022-08-26T12:05:35.760Z,23.63
2022-08-26T12:08:08.997Z,23.71
2022-08-26T12:10:36.577Z,23.87
2022-08-26T12:13:03.810Z,24.08
2022-08-26T12:15:32.025Z,24.26
2022-08-26T12:18:15.879Z,24.38
2022-08-26T12:20:48.620Z,24.55
2022-08-26T12:23:21.997Z,24.79
2022-08-26T12:25:50.021Z,24.92
2022-08-26T12:28:16.496Z,25.17
2022-08-26T12:31:04.564Z,25.32
2022-08-26T12:33:31.947Z,25.52
2022-08-26T12:36:00.046Z,25.71
2022-08-26T12:38:26.952Z,25.95
2022-08-26T12:40:53.677Z,26.09
2022-08-26T12:43:46.332Z,26.30
2022-08-26T12:46:16.218Z,26.49
2022-08-26T12:48:45.767Z,26.75
2022-08-26T12:51:26.483Z,26.86
2022-08-26T12:53:53.385Z,26.94
2022-08-26T12:56:40.118Z,27.02
2022-08-26T12:59:23.899Z,27.14
2022-08-26T13:01:51.607Z,27.30
2022-08-26T13:04:36.569Z,27.21
2022-08-26T13:07:32.252Z,27.20
2022-08-26T13:09:58.994Z,27.21
2022-08-26T13:12:26.856Z,27.31
2022-08-26T13:14:54.031Z,27.38
2022-08-26T13:17:21.078Z,27.53
2022-08-26T13:19:47.664Z,27.53
2022-08-26T13:22:14.798Z,27.59
2022-08-26T13:24:42.495Z,27.81
2022-08-26T13:27:10.361Z,28.05
2022-08-26T13:29:37.541Z,28.13
2022-08-26T13:32:05.419Z,28.28
2022-08-26T13:34:32.550Z,28.39
2022-08-26T13:36:59.219Z,28.47
2022-08-26T13:39:26.139Z,28.64
2022-08-26T13:41:53.192Z,28.66
2022-08-26T13:44:19.922Z,28.57
2022-08-26T13:46:46.373Z,28.43
2022-08-26T13:49:12.901Z,28.30
2022-08-26T13:51:39.599Z,28.23
2022-08-26T13:54:06.274Z,28.11
2022-08-26T13:56:33.011Z,28.03
2022-08-26T13:58:59.868Z,28.03
2022-08-26T14:01:27.689Z,27.97
2022-08-26T14:03:54.246Z,28.07
2022-08-26T14:06:21.226Z,28.14
2022-08-26T14:08:48.059Z,28.28
2022-08-26T14:11:14.719Z,28.36
2022-08-26T14:13:41.278Z,28.46
2022-08-26T14:16:09.306Z,28.63
2022-08-26T14:18:41.838Z,28.76
2022-08-26T14:21:11.697Z,28.31
2022-08-26T14:23:38.271Z,26.99
2022-08-26T14:26:08.237Z,26.10
2022-08-26T14:28:35.539Z,25.77
2022-08-26T14:31:02.602Z,25.50
2022-08-26T14:33:31.203Z,25.37
2022-08-26T14:36:17.880Z,25.29
2022-08-26T14:38:46.999Z,25.26
2022-08-26T14:41:16.708Z,25.11
2022-08-26T14:43:46.490Z,25.12
2022-08-26T14:46:14.526Z,25.00
2022-08-26T14:48:41.152Z,25.00
2022-08-26T14:51:08.095Z,25.01
2022-08-26T14:53:53.272Z,25.01
2022-08-26T14:56:19.823Z,25.09
2022-08-26T14:58:46.216Z,25.21
2022-08-26T15:01:13.105Z,25.19
2022-08-26T15:03:41.258Z,25.31
2022-08-26T15:06:08.373Z,25.42
2022-08-26T15:08:36.644Z,25.56
2022-08-26T15:11:04.184Z,25.65
2022-08-26T15:13:30.641Z,25.68
2022-08-26T15:15:57.109Z,25.67
2022-08-26T15:18:24.747Z,25.68
2022-08-26T15:20:51.199Z,25.70
2022-08-26T15:23:17.647Z,25.56
2022-08-26T15:25:46.999Z,25.43
2022-08-26T15:28:13.547Z,25.26
2022-08-26T15:30:40.067Z,25.11
2022-08-26T15:33:15.301Z,25.11
2022-08-26T15:35:42.913Z,25.05
2022-08-26T15:38:09.903Z,25.00
2022-08-26T15:40:36.560Z,24.99
2022-08-26T15:43:18.493Z,24.95
2022-08-26T15:45:50.620Z,25.06
2022-08-26T15:48:17.025Z,25.01
2022-08-26T15:50:49.640Z,25.01
2022-08-26T15:53:16.203Z,24.94
2022-08-26T15:55:42.597Z,24.69
2022-08-26T15:58:10.425Z,24.52
2022-08-26T16:00:37.500Z,24.30
2022-08-26T16:03:04.152Z,24.15
2022-08-26T16:05:30.700Z,23.94
2022-08-26T16:07:57.851Z,23.84
2022-08-26T16:10:24.916Z,23.73
2022-08-26T16:12:51.401Z,23.63
2022-08-26T16:15:18.153Z,23.56
2022-08-26T16:17:45.542Z,23.50
2022-08-26T16:20:12.100Z,23.45
2022-08-26T16:22:38.690Z,23.45
2022-08-26T16:25:07.424Z,23.41
2022-08-26T16:27:33.815Z,23.32
2022-08-26T16:30:00.392Z,23.29
2022-08-26T16:32:30.765Z,23.25
2022-08-26T16:34:58.680Z,23.22
2022-08-26T16:37:25.122Z,23.11
2022-08-26T16:39:51.758Z,23.04
2022-08-26T16:42:18.300Z,23.01
2022-08-26T16:44:44.922Z,22.86
2022-08-26T16:47:12.647Z,22.69
2022-08-26T16:49:39.640Z,22.61
2022-08-26T16:52:06.961Z,22.53
2022-08-26T16:54:33.776Z,22.49
2022-08-26T16:57:00.273Z,22.47
2022-08-26T16:59:26.788Z,22.48
2022-08-26T17:01:54.514Z,22.36
2022-08-26T17:04:21.909Z,22.31
2022-08-26T17:06:48.388Z,22.23
2022-08-26T17:09:14.778Z,22.18
2022-08-26T17:11:41.410Z,22.14
2022-08-26T17:14:10.211Z,22.18
2022-08-26T17:16:36.775Z,22.14
2022-08-26T17:19:04.554Z,22.08
2022-08-26T17:21:32.255Z,22.05
2022-08-26T17:23:59.282Z,22.02
2022-08-26T17:26:26.435Z,22.00
2022-08-26T17:28:53.527Z,21.98
2022-08-26T17:31:20.650Z,21.96
2022-08-26T17:33:53.224Z,21.93
2022-08-26T17:36:20.567Z,21.93
2022-08-26T17:38:47.021Z,21.91
2022-08-26T17:41:16.530Z,21.90
2022-08-26T17:43:42.987Z,21.87
2022-08-26T17:46:10.332Z,21.85
2022-08-26T17:48:38.075Z,21.82
2022-08-26T17:51:08.793Z,21.77
2022-08-26T17:53:35.520Z,21.71
2022-08-26T17:56:02.149Z,21.68
2022-08-26T17:58:28.755Z,21.63
2022-08-26T18:00:55.894Z,21.58
2022-08-26T18:03:23.575Z,21.61
2022-08-26T18:05:51.432Z,21.58
2022-08-26T18:08:18.262Z,21.54
2022-08-26T18:10:45.201Z,21.52
2022-08-26T18:13:11.751Z,21.47
2022-08-26T18:15:39.209Z,21.45
2022-08-26T18:18:05.848Z,21.46
2022-08-26T18:20:32.380Z,21.44
2022-08-26T18:22:59.118Z,21.45
2022-08-26T18:25:25.641Z,21.36
2022-08-26T18:27:52.405Z,21.37
2022-08-26T18:30:20.774Z,21.35
2022-08-26T18:32:48.125Z,21.32
2022-08-26T18:35:14.929Z,21.30
2022-08-26T18:37:41.425Z,21.27
2022-08-26T18:40:10.429Z,21.26
2022-08-26T18:42:36.926Z,21.26
2022-08-26T18:45:04.389Z,21.25
2022-08-26T18:47:31.700Z,21.25
2022-08-26T18:49:58.204Z,21.25
2022-08-26T18:52:24.861Z,21.26
2022-08-26T18:54:51.365Z,21.27
2022-08-26T18:57:17.941Z,21.26
2022-08-26T18:59:44.478Z,21.27
2022-08-26T19:02:11.630Z,21.28
2022-08-26T19:04:41.279Z,21.27
2022-08-26T19:07:07.705Z,21.27
2022-08-26T19:09:35.967Z,21.27
2022-08-26T19:12:03.845Z,21.23
2022-08-26T19:14:31.643Z,21.22
2022-08-26T19:16:58.439Z,21.22
2022-08-26T19:19:25.003Z,21.20
2022-08-26T19:22:07.560Z,21.22
2022-08-26T19:24:34.389Z,21.24
2022-08-26T19:27:01.787Z,21.25
2022-08-26T19:29:29.850Z,21.27
2022-08-26T19:31:57.244Z,21.15
2022-08-26T19:34:24.318Z,20.93
2022-08-26T19:36:53.115Z,20.73
2022-08-26T19:39:20.240Z,20.60
2022-08-26T19:41:46.871Z,20.49
2022-08-26T19:44:35.069Z,20.43
2022-08-26T19:47:03.618Z,20.38
2022-08-26T19:49:30.089Z,20.35
2022-08-26T19:51:56.682Z,20.41
2022-08-26T19:54:23.166Z,20.36
2022-08-26T19:56:49.893Z,20.28
2022-08-26T19:59:48.363Z,20.27
2022-08-26T20:02:15.033Z,20.22
2022-08-26T20:04:41.981Z,20.18
2022-08-26T20:07:09.153Z,20.16
2022-08-26T20:09:36.347Z,20.12
2022-08-26T20:12:05.208Z,20.11
2022-08-26T20:14:31.939Z,20.10
2022-08-26T20:16:58.583Z,20.09
2022-08-26T20:19:43.405Z,20.20
2022-08-26T20:22:10.444Z,20.20
2022-08-26T20:24:40.358Z,20.18
2022-08-26T20:27:08.076Z,20.12
2022-08-26T20:29:35.184Z,20.09
2022-08-26T20:32:02.674Z,20.08
2022-08-26T20:34:29.773Z,20.10
2022-08-26T20:36:56.331Z,20.09
2022-08-26T20:39:22.852Z,20.10
2022-08-26T20:41:49.508Z,20.10
2022-08-26T20:44:17.610Z,20.10
2022-08-26T20:46:44.179Z,20.09
2022-08-26T20:49:10.689Z,20.10
2022-08-26T20:51:37.785Z,20.10
2022-08-26T20:54:05.062Z,20.08
2022-08-26T20:56:31.672Z,20.08
2022-08-26T20:59:00.448Z,20.08
2022-08-26T21:01:30.572Z,20.06
2022-08-26T21:03:57.053Z,20.09
2022-08-26T21:06:23.672Z,20.06
2022-08-26T21:08:50.230Z,20.06
2022-08-26T21:11:18.132Z,20.03
2022-08-26T21:14:03.881Z,20.03
2022-08-26T21:16:31.471Z,20.02
2022-08-26T21:18:58.325Z,19.99
2022-08-26T21:21:29.832Z,20.00
2022-08-26T21:23:56.602Z,20.02
2022-08-26T21:26:23.053Z,20.02
2022-08-26T21:28:49.609Z,20.02
2022-08-26T21:31:17.970Z,20.03
2022-08-26T21:33:44.923Z,20.01
2022-08-26T21:36:12.015Z,19.97
2022-08-26T21:38:38.751Z,20.02
2022-08-26T21:41:07.491Z,20.04
2022-08-26T21:43:35.499Z,20.04
2022-08-26T21:46:14.359Z,19.98
2022-08-26T21:48:48.735Z,20.01
2022-08-26T21:51:17.837Z,20.01
2022-08-26T21:53:44.270Z,19.87
2022-08-26T21:56:12.189Z,19.86
2022-08-26T21:58:38.950Z,19.83
2022-08-26T22:01:20.682Z,19.84
2022-08-26T22:03:47.981Z,19.79
2022-08-26T22:06:18.160Z,19.80
2022-08-26T22:08:44.544Z,19.78
2022-08-26T22:11:11.471Z,19.76
2022-08-26T22:13:39.178Z,19.76
2022-08-26T22:16:06.322Z,19.75
2022-08-26T22:18:32.981Z,19.72
2022-08-26T22:21:01.244Z,19.72
2022-08-26T22:23:28.060Z,19.77
2022-08-26T22:25:54.773Z,19.75
2022-08-26T22:28:21.682Z,19.77
2022-08-26T22:30:48.725Z,19.79
2022-08-26T22:33:16.475Z,19.71
2022-08-26T22:35:45.095Z,19.74
2022-08-26T22:38:11.742Z,19.83
2022-08-26T22:40:38.512Z,19.72
2022-08-26T22:43:06.013Z,19.67
2022-08-26T22:45:32.543Z,19.66
2022-08-26T22:47:59.681Z,19.65
2022-08-26T22:50:26.305Z,19.65
2022-08-26T22:52:52.677Z,19.64
2022-08-26T22:55:19.105Z,19.64
2022-08-26T22:57:45.477Z,19.72
2022-08-26T23:00:13.814Z,19.64
2022-08-26T23:02:40.749Z,19.63
2022-08-26T23:05:07.687Z,19.63
2022-08-26T23:07:34.359Z,19.73
2022-08-26T23:10:01.073Z,19.67
2022-08-26T23:12:28.026Z,19.70
2022-08-26T23:14:54.422Z,19.62
2022-08-26T23:17:21.405Z,19.57
2022-08-26T23:19:48.351Z,19.53
2022-08-26T23:22:16.902Z,19.51
2022-08-26T23:24:43.742Z,19.47
2022-08-26T23:27:10.227Z,19.47
2022-08-26T23:29:37.042Z,19.45
2022-08-26T23:32:05.671Z,19.47
2022-08-26T23:34:50.860Z,19.45
2022-08-26T23:37:19.242Z,19.45
2022-08-26T23:39:46.100Z,19.45
2022-08-26T23:42:12.944Z,19.46
2022-08-26T23:44:39.578Z,19.46
2022-08-26T23:47:06.704Z,19.46
2022-08-26T23:49:35.749Z,19.45
2022-08-26T23:52:22.299Z,19.45
2022-08-26T23:54:49.104Z,19.45
2022-08-26T23:57:17.017Z,19.44
2022-08-26T23:59:43.425Z,19.44
